Time;durP1;ratioP1;P1;durP2;ratioP2;P2;SDS_P1;SDS_P2;PMS_P1;PMS_P2;Temp;Humidity;BMP_temperature;BMP_pressure;BME280_temperature;BME280_humidity;BME280_pressure;Samples;Min_cycle;Max_cycle;Signal;HPM_P1;HPM_P2
2022/10/03 00:00:08;;;;;;;1.15;0.20;;;21.80;55.70;;;;;;5050271;28;20045;-46
2022/10/03 00:03:03;;;;;;;4.57;0.60;;;21.80;55.70;;;;;;5066158;28;20033;-51
2022/10/03 00:05:42;;;;;;;0.95;0.20;;;21.70;55.70;;;;;;5054195;28;20060;-47
2022/10/03 00:08:19;;;;;;;1.23;0.68;;;21.80;55.80;;;;;;5055279;28;20458;-46
2022/10/03 00:10:57;;;;;;;2.33;0.45;;;21.70;55.70;;;;;;5056869;28;20049;-47
2022/10/03 00:13:32;;;;;;;1.05;0.20;;;21.80;55.80;;;;;;5043346;28;20554;-46
2022/10/03 00:16:10;;;;;;;1.65;0.22;;;21.70;55.70;;;;;;5063477;28;20040;-46
2022/10/03 00:18:49;;;;;;;1.67;0.20;;;21.70;56.30;;;;;;5049387;28;20055;-47
2022/10/03 00:21:35;;;;;;;1.50;0.30;;;21.70;55.70;;;;;;5063495;28;20122;-47
2022/10/03 00:24:16;;;;;;;0.40;0.40;;;21.70;55.70;;;;;;5049371;28;20037;-47
2022/10/03 00:26:49;;;;;;;1.15;0.10;;;21.70;55.70;;;;;;5047994;28;20040;-48
2022/10/03 00:29:31;;;;;;;0.30;0.10;;;21.70;55.80;;;;;;5063505;28;20045;-46
2022/10/03 00:32:09;;;;;;;0.90;0.20;;;21.70;55.70;;;;;;5057021;28;20508;-47
2022/10/03 00:34:54;;;;;;;1.98;0.20;;;21.70;55.70;;;;;;5055619;28;20136;-47
2022/10/03 00:37:30;;;;;;;0.30;0.10;;;21.70;55.70;;;;;;5062385;28;20047;-47
2022/10/03 00:40:10;;;;;;;;;;;21.70;55.70;;;;;;5048713;28;20033;-48
2022/10/03 00:43:26;;;;;;;1.25;0.22;;;21.60;55.70;;;;;;5066634;28;19924;-46
2022/10/03 00:46:32;;;;;;;0.30;0.20;;;21.60;55.70;;;;;;5066952;28;20041;-46
2022/10/03 00:49:41;;;;;;;1.58;0.30;;;21.60;55.70;;;;;;5000467;28;20484;-46
2022/10/03 00:52:22;;;;;;;0.47;0.43;;;21.60;55.70;;;;;;4988296;28;20706;-46
2022/10/03 00:55:00;;;;;;;0.55;0.10;;;21.60;55.70;;;;;;4969837;28;20622;-48
2022/10/03 00:57:53;;;;;;;1.05;0.30;;;21.60;55.80;;;;;;4982402;28;20042;-46
2022/10/03 01:00:23;;;;;;;0.30;0.28;;;21.60;55.70;;;;;;5000840;28;20039;-46
2022/10/03 01:03:12;;;;;;;3.10;0.32;;;21.60;55.70;;;;;;4997958;28;20176;-45
2022/10/03 01:05:52;;;;;;;0.20;0.20;;;21.60;55.70;;;;;;4987425;28;20046;-46
2022/10/03 01:08:35;;;;;;;0.52;0.43;;;21.60;55.70;;;;;;4996749;28;20046;-48
2022/10/03 01:11:09;;;;;;;0.40;0.20;;;21.60;55.60;;;;;;4985808;28;20547;-46
2022/10/03 01:13:46;;;;;;;0.20;0.20;;;21.60;55.70;;;;;;4996112;28;20070;-46
2022/10/03 01:16:21;;;;;;;0.82;0.20;;;21.60;55.70;;;;;;5000928;28;20132;-47
2022/10/03 01:19:01;;;;;;;1.35;0.30;;;21.60;55.60;;;;;;4993301;28;20403;-46
2022/10/03 01:21:40;;;;;;;0.35;0.22;;;21.60;55.60;;;;;;5004135;28;20045;-48
2022/10/03 01:24:37;;;;;;;0.50;0.30;;;21.60;55.60;;;;;;4995653;28;20613;-46
2022/10/03 01:27:06;;;;;;;0.70;0.20;;;21.60;55.60;;;;;;5041708;28;20059;-46
2022/10/03 01:32:37;;;;;;;0.52;0.10;;;21.60;55.70;;;;;;5026711;28;20490;-47
2022/10/03 01:35:21;;;;;;;1.93;0.20;;;21.50;55.60;;;;;;5052070;28;20130;-47
2022/10/03 01:37:58;;;;;;;2.10;0.30;;;21.60;55.70;;;;;;5067361;28;20310;-48
2022/10/03 01:40:29;;;;;;;2.63;0.10;;;21.60;55.70;;;;;;5054404;28;20586;-47
2022/10/03 01:43:06;;;;;;;0.13;0.10;;;21.50;55.60;;;;;;5051082;28;20069;-46
2022/10/03 01:45:47;;;;;;;0.22;0.20;;;21.50;55.60;;;;;;5051392;28;20067;-47
2022/10/03 01:48:22;;;;;;;0.50;0.10;;;21.50;55.60;;;;;;5063046;28;20048;-47
2022/10/03 01:51:00;;;;;;;0.60;0.20;;;21.50;55.60;;;;;;5068753;28;20136;-45
2022/10/03 01:53:40;;;;;;;0.52;0.20;;;21.50;55.60;;;;;;5065305;28;20520;-47
2022/10/03 01:56:15;;;;;;;0.82;0.10;;;21.50;55.60;;;;;;5069244;28;20389;-46
2022/10/03 01:58:55;;;;;;;1.25;0.20;;;21.50;55.60;;;;;;5070050;28;20437;-46
2022/10/03 02:01:31;;;;;;;0.45;0.20;;;21.50;55.60;;;;;;5069774;28;20044;-46
2022/10/03 02:04:06;;;;;;;0.63;0.10;;;21.50;55.50;;;;;;5062693;28;20052;-50
2022/10/03 02:06:42;;;;;;;0.88;0.20;;;21.50;55.50;;;;;;5070106;28;20040;-49
2022/10/03 02:09:23;;;;;;;3.33;0.40;;;21.50;55.50;;;;;;5063263;28;20044;-48
2022/10/03 02:12:07;;;;;;;0.30;0.20;;;21.50;55.50;;;;;;5069520;28;20720;-46
2022/10/03 02:14:45;;;;;;;0.43;0.13;;;21.50;55.50;;;;;;5051165;28;20723;-48
2022/10/03 02:17:24;;;;;;;0.77;0.32;;;21.50;55.50;;;;;;5069453;28;20171;-45
2022/10/03 02:20:00;;;;;;;1.20;0.20;;;21.50;55.50;;;;;;5048542;28;20071;-47
2022/10/03 02:22:35;;;;;;;0.77;0.47;;;21.50;55.50;;;;;;5050443;28;20048;-47
2022/10/03 02:25:30;;;;;;;2.75;0.20;;;21.40;55.50;;;;;;5045362;28;20047;-45
2022/10/03 02:28:44;;;;;;;2.00;0.20;;;21.50;55.40;;;;;;5039910;28;20128;-48
2022/10/03 02:31:55;;;;;;;0.73;0.20;;;21.40;55.40;;;;;;5053076;28;20136;-46
2022/10/03 02:34:45;;;;;;;2.03;0.20;;;21.40;55.50;;;;;;5047157;28;20048;-48
2022/10/03 02:37:33;;;;;;;0.25;0.10;;;21.40;55.50;;;;;;5068997;28;20064;-49
2022/10/03 02:40:32;;;;;;;0.98;0.10;;;21.40;55.50;;;;;;5069475;28;20124;-47
2022/10/03 02:43:31;;;;;;;0.95;0.15;;;21.40;55.60;;;;;;5069518;28;20041;-45
2022/10/03 02:46:35;;;;;;;0.22;0.20;;;21.40;55.50;;;;;;5069268;28;20060;-48
2022/10/03 02:49:35;;;;;;;0.20;0.15;;;21.40;55.60;;;;;;5068822;28;20048;-47
2022/10/03 02:52:51;;;;;;;0.45;0.10;;;21.40;55.60;;;;;;5043519;28;20584;-47
2022/10/03 02:55:47;;;;;;;0.63;0.20;;;21.30;55.50;;;;;;5043043;28;20167;-48
2022/10/03 02:58:45;;;;;;;0.60;0.20;;;21.30;55.60;;;;;;5050028;28;20057;-47
2022/10/03 03:02:06;;;;;;;0.73;0.20;;;21.30;55.60;;;;;;5049760;28;20081;-48
2022/10/03 03:05:05;;;;;;;1.00;0.20;;;21.30;55.50;;;;;;5038943;28;20099;-46
2022/10/03 03:07:44;;;;;;;0.50;0.10;;;21.30;55.60;;;;;;5049712;28;20139;-46
2022/10/03 03:10:59;;;;;;;0.40;0.20;;;21.30;55.60;;;;;;5049484;28;20047;-45
2022/10/03 03:13:55;;;;;;;1.10;0.43;;;21.30;55.50;;;;;;5049771;28;20044;-43
2022/10/03 03:16:48;;;;;;;1.55;0.65;;;21.30;55.50;;;;;;5043199;28;20056;-47
2022/10/03 03:19:31;;;;;;;0.38;0.15;;;21.20;55.40;;;;;;5048587;28;20704;-48
2022/10/03 03:22:09;;;;;;;0.55;0.55;;;21.20;55.40;;;;;;5055496;28;20037;-47
2022/10/03 03:25:04;;;;;;;3.88;0.57;;;21.30;56.10;;;;;;5067158;28;20094;-46
2022/10/03 03:27:43;;;;;;;0.63;0.60;;;21.30;55.40;;;;;;5046876;28;20052;-47
2022/10/03 03:30:13;;;;;;;1.20;0.82;;;21.30;55.40;;;;;;5068276;28;20232;-46
2022/10/03 03:32:55;;;;;;;1.42;0.30;;;21.20;55.30;;;;;;5068572;28;20036;-46
2022/10/03 03:35:35;;;;;;;0.45;0.10;;;21.30;55.40;;;;;;5063709;28;20036;-48
2022/10/03 03:38:19;;;;;;;1.38;0.20;;;21.20;55.30;;;;;;5049324;28;20059;-49
2022/10/03 03:41:01;;;;;;;0.32;0.32;;;21.30;55.30;;;;;;5049210;28;20592;-46
2022/10/03 03:43:44;;;;;;;0.43;0.22;;;21.30;55.90;;;;;;5049351;28;20045;-46
2022/10/03 03:46:21;;;;;;;0.30;0.30;;;21.20;55.20;;;;;;5049050;28;20541;-45
2022/10/03 03:49:14;;;;;;;1.10;0.55;;;21.20;55.20;;;;;;5049093;28;20101;-47
2022/10/03 03:51:51;;;;;;;0.47;0.30;;;21.20;55.20;;;;;;5050221;28;20102;-48
2022/10/03 03:54:43;;;;;;;1.05;0.65;;;21.20;55.20;;;;;;5055328;28;20045;-47
2022/10/03 03:57:40;;;;;;;0.73;0.52;;;21.20;55.10;;;;;;5067990;28;20465;-50
2022/10/03 04:00:14;;;;;;;1.65;0.95;;;21.20;55.20;;;;;;5062920;28;20068;-47
2022/10/03 04:03:00;;;;;;;1.27;0.43;;;21.20;55.20;;;;;;5066632;28;20056;-47
2022/10/03 04:05:38;;;;;;;2.67;0.53;;;21.20;55.80;;;;;;5055508;28;20045;-47
2022/10/03 04:08:33;;;;;;;2.70;0.40;;;21.20;55.20;;;;;;5047993;28;20048;-46
2022/10/03 04:11:17;;;;;;;1.50;0.57;;;21.20;55.20;;;;;;5048265;28;20129;-47
2022/10/03 04:14:10;;;;;;;0.55;0.55;;;21.20;55.20;;;;;;5060394;28;20687;-45
2022/10/03 04:20:02;;;;;;;0.55;0.50;;;21.20;55.10;;;;;;5065558;28;20045;-47
2022/10/03 04:22:44;;;;;;;0.73;0.32;;;21.20;55.10;;;;;;5058826;28;20040;-47
2022/10/03 04:25:30;;;;;;;2.70;0.30;;;21.20;55.10;;;;;;5048229;28;20098;-49
2022/10/03 04:28:33;;;;;;;2.50;0.60;;;21.20;55.10;;;;;;5055934;28;20044;-51
2022/10/03 04:31:15;;;;;;;1.20;0.20;;;21.20;55.00;;;;;;5063295;28;20059;-47
2022/10/03 04:34:06;;;;;;;2.38;0.20;;;21.20;55.10;;;;;;5040505;28;20099;-45
2022/10/03 04:37:05;;;;;;;0.95;0.20;;;21.30;55.10;;;;;;5047667;28;20130;-46
2022/10/03 04:39:42;;;;;;;0.90;0.40;;;21.30;55.10;;;;;;5042911;28;20045;-45
2022/10/03 04:42:27;;;;;;;2.05;0.50;;;21.30;55.10;;;;;;5061254;28;20037;-45
2022/10/03 04:45:17;;;;;;;0.60;0.43;;;21.30;55.10;;;;;;5060629;28;20393;-49
2022/10/03 04:47:53;;;;;;;1.00;0.30;;;21.30;55.00;;;;;;5066747;28;20044;-49
2022/10/03 04:50:34;;;;;;;1.30;0.20;;;21.30;55.00;;;;;;5066863;28;20040;-46
2022/10/03 04:53:18;;;;;;;0.68;0.20;;;21.30;55.00;;;;;;5054372;28;20049;-46
2022/10/03 04:55:49;;;;;;;0.45;0.45;;;21.30;54.90;;;;;;5066903;28;20040;-46
2022/10/03 04:58:33;;;;;;;0.68;0.63;;;21.30;55.00;;;;;;5066879;28;20044;-46
2022/10/03 05:01:08;;;;;;;1.25;0.47;;;21.30;54.90;;;;;;5062710;28;20070;-46
2022/10/03 05:03:58;;;;;;;1.85;0.40;;;21.30;54.90;;;;;;5047690;28;20041;-46
2022/10/03 05:06:37;;;;;;;1.95;0.40;;;21.30;54.90;;;;;;5046717;28;20124;-46
2022/10/03 05:09:20;;;;;;;1.10;0.98;;;21.30;54.90;;;;;;5050868;28;20120;-49
2022/10/03 05:11:58;;;;;;;0.93;0.30;;;21.30;54.80;;;;;;5065750;28;20075;-48
2022/10/03 05:14:37;;;;;;;1.25;0.30;;;21.30;54.80;;;;;;5050639;28;20041;-50
2022/10/03 05:17:16;;;;;;;2.17;0.80;;;21.30;54.80;;;;;;5048522;28;20150;-48
2022/10/03 05:20:01;;;;;;;0.60;0.60;;;21.30;54.80;;;;;;5054648;28;20045;-48
2022/10/03 05:22:44;;;;;;;1.35;1.30;;;21.40;54.80;;;;;;5052027;28;20053;-49
2022/10/03 05:25:26;;;;;;;1.48;0.55;;;21.30;54.80;;;;;;5063229;28;20079;-47
2022/10/03 05:28:03;;;;;;;1.02;0.52;;;21.30;54.80;;;;;;5061258;28;20136;-45
2022/10/03 05:30:41;;;;;;;1.52;0.52;;;21.30;54.80;;;;;;5068921;28;20144;-47
2022/10/03 05:33:17;;;;;;;2.35;0.65;;;21.30;54.80;;;;;;5070348;28;20044;-48
2022/10/03 05:35:58;;;;;;;0.70;0.57;;;21.30;54.80;;;;;;5044953;28;20498;-50
2022/10/03 05:38:57;;;;;;;1.70;0.70;;;21.30;54.80;;;;;;5064097;28;20146;-46
2022/10/03 05:41:30;;;;;;;0.95;0.70;;;21.30;54.70;;;;;;5050159;28;20432;-46
2022/10/03 05:44:04;;;;;;;1.55;0.57;;;21.30;54.80;;;;;;5033556;28;20063;-46
2022/10/03 05:46:55;;;;;;;2.28;1.15;;;21.30;54.70;;;;;;5051363;28;20051;-44
2022/10/03 05:49:41;;;;;;;0.98;0.80;;;21.30;54.70;;;;;;5049641;28;20122;-46
2022/10/03 05:52:42;;;;;;;0.80;0.80;;;21.20;54.70;;;;;;5059225;28;20501;-45
2022/10/03 05:55:29;;;;;;;1.10;1.05;;;21.30;54.80;;;;;;5067260;28;20207;-45
2022/10/03 05:58:24;;;;;;;1.25;0.82;;;21.20;54.80;;;;;;5068991;28;20110;-45
2022/10/03 06:01:08;;;;;;;1.98;1.45;;;21.20;54.80;;;;;;5070016;28;20634;-46
2022/10/03 06:04:07;;;;;;;4.10;1.60;;;21.20;54.80;;;;;;5044214;28;20040;-45
2022/10/03 06:06:48;;;;;;;1.85;1.17;;;21.20;54.90;;;;;;5047281;28;20060;-45
2022/10/03 06:09:52;;;;;;;1.88;1.60;;;21.20;54.90;;;;;;5050866;28;20049;-47
2022/10/03 06:12:25;;;;;;;1.55;1.45;;;21.20;55.00;;;;;;5049479;28;20559;-46
2022/10/03 06:15:15;;;;;;;2.00;1.35;;;21.10;55.00;;;;;;5059134;28;20527;-46
2022/10/03 06:18:01;;;;;;;2.75;1.60;;;21.20;55.00;;;;;;5043791;28;20057;-45
2022/10/03 06:21:09;;;;;;;5.55;1.58;;;21.20;55.00;;;;;;5050307;28;20102;-45
2022/10/03 06:24:09;;;;;;;1.45;1.20;;;21.10;55.00;;;;;;5046660;28;20045;-46
2022/10/03 06:27:21;;;;;;;1.35;1.15;;;21.10;55.00;;;;;;5027654;28;20135;-47
2022/10/03 06:30:20;;;;;;;2.63;1.48;;;21.10;55.00;;;;;;5021699;28;20057;-47
2022/10/03 06:33:21;;;;;;;2.67;1.42;;;21.10;55.10;;;;;;5034788;28;20045;-48
2022/10/03 06:36:26;;;;;;;1.60;1.30;;;21.10;55.10;;;;;;5046485;28;20048;-46
2022/10/03 06:39:26;;;;;;;3.15;1.17;;;21.10;55.10;;;;;;4963771;28;20142;-46
2022/10/03 06:42:18;;;;;;;1.33;0.88;;;21.10;55.10;;;;;;4914396;29;20076;-46
2022/10/03 06:45:10;;;;;;;0.75;0.50;;;21.00;55.10;;;;;;4926981;29;20086;-46
2022/10/03 06:47:53;;;;;;;1.17;1.13;;;21.00;55.10;;;;;;4930031;29;20111;-46
2022/10/03 06:50:53;;;;;;;3.17;1.25;;;21.00;55.10;;;;;;4937227;28;20054;-45
2022/10/03 06:53:39;;;;;;;1.92;1.27;;;21.00;55.00;;;;;;4923539;29;20428;-45
2022/10/03 06:56:45;;;;;;;0.70;0.68;;;21.00;55.10;;;;;;4948987;28;20088;-46
2022/10/03 06:59:44;;;;;;;0.85;0.82;;;21.00;55.00;;;;;;4924548;29;20532;-46
2022/10/03 07:02:55;;;;;;;0.80;0.80;;;21.00;55.00;;;;;;4929960;29;20155;-46
2022/10/03 07:05:50;;;;;;;5.20;1.15;;;21.00;55.00;;;;;;4928247;28;20109;-47
2022/10/03 07:08:54;;;;;;;0.50;0.50;;;21.00;55.00;;;;;;4924990;29;20056;-47
2022/10/03 07:11:44;;;;;;;1.75;0.93;;;21.00;55.00;;;;;;4930038;29;20087;-51
2022/10/03 07:14:56;;;;;;;1.48;0.77;;;21.00;55.20;;;;;;4965690;28;20147;-47
2022/10/03 07:17:42;;;;;;;2.55;1.08;;;21.00;55.50;;;;;;5009786;28;20061;-46
2022/10/03 07:20:35;;;;;;;0.80;0.77;;;21.00;55.00;;;;;;5058592;28;20049;-48
2022/10/03 07:23:31;;;;;;;0.90;0.68;;;21.00;54.90;;;;;;5044386;28;20106;-45
2022/10/03 07:26:44;;;;;;;1.10;0.55;;;21.00;54.80;;;;;;5056386;28;20045;-46
2022/10/03 07:29:33;;;;;;;1.23;0.80;;;21.00;54.80;;;;;;5049628;28;20491;-47
2022/10/03 07:32:29;;;;;;;0.38;0.32;;;21.00;54.80;;;;;;5056329;28;20048;-45
2022/10/03 07:38:56;;;;;;;0.60;0.40;;;21.00;54.80;;;;;;5064406;28;20044;-45
2022/10/03 07:39:02;;;;;;;0.85;0.77;;;21.00;54.70;;;;;;5049072;28;20139;-46
2022/10/03 07:42:00;;;;;;;1.52;0.45;;;21.00;54.70;;;;;;5017880;28;20052;-48
2022/10/03 07:44:59;;;;;;;1.35;0.30;;;21.00;54.70;;;;;;5026246;28;20629;-48
2022/10/03 07:48:12;;;;;;;0.30;0.30;;;21.00;54.70;;;;;;5014751;28;20099;-47
2022/10/03 07:51:11;;;;;;;2.20;0.93;;;21.00;54.50;;;;;;4948455;28;20142;-47
2022/10/03 07:54:09;;;;;;;0.28;0.20;;;21.00;54.60;;;;;;4952005;28;20039;-46
2022/10/03 07:57:03;;;;;;;0.47;0.20;;;21.00;54.60;;;;;;4953230;28;20048;-45
2022/10/03 08:00:09;;;;;;;0.47;0.35;;;21.00;54.50;;;;;;4948182;28;20610;-46
2022/10/03 08:03:13;;;;;;;3.92;0.40;;;21.00;54.50;;;;;;4948306;28;20055;-46
2022/10/03 08:05:55;;;;;;;0.85;0.30;;;21.00;54.40;;;;;;4948050;28;20140;-46
2022/10/03 08:08:52;;;;;;;0.68;0.40;;;21.00;54.40;;;;;;4932314;29;20062;-47
2022/10/03 08:11:41;;;;;;;0.43;0.43;;;21.10;54.40;;;;;;4954762;28;20046;-46
2022/10/03 08:14:18;;;;;;;1.35;0.20;;;21.10;54.40;;;;;;4962936;28;20460;-45
2022/10/03 08:17:14;;;;;;;1.85;0.45;;;21.10;54.30;;;;;;4966570;28;20053;-47
2022/10/03 08:20:10;;;;;;;0.98;0.47;;;21.10;54.30;;;;;;4980581;28;20537;-46
2022/10/03 08:22:43;;;;;;;;;;;21.10;54.30;;;;;;4967605;28;20055;-46
2022/10/03 08:25:42;;;;;;;1.15;0.45;;;21.00;54.30;;;;;;4982053;28;20422;-46
2022/10/03 08:28:37;;;;;;;0.55;0.30;;;21.10;54.30;;;;;;5007572;28;20057;-46
2022/10/03 08:31:40;;;;;;;0.93;0.82;;;21.10;54.30;;;;;;5067169;28;20055;-47
2022/10/03 08:34:49;;;;;;;0.80;0.65;;;21.20;54.20;;;;;;5050300;28;20040;-45
2022/10/03 08:37:44;;;;;;;0.82;0.43;;;21.20;54.20;;;;;;5067219;28;20136;-46
2022/10/03 08:40:44;;;;;;;2.05;0.55;;;21.30;54.20;;;;;;5067423;28;20036;-45
2022/10/03 08:43:46;;;;;;;0.30;0.30;;;21.30;54.10;;;;;;5058747;28;20085;-45
2022/10/03 08:46:51;;;;;;;0.40;0.40;;;21.30;54.00;;;;;;5048297;28;20045;-46
2022/10/03 08:49:39;;;;;;;0.98;0.20;;;21.30;54.00;;;;;;5005910;28;20061;-47
2022/10/03 08:52:24;;;;;;;1.35;0.30;;;21.40;53.90;;;;;;5005777;28;20058;-47
2022/10/03 08:55:21;;;;;;;0.50;0.40;;;21.40;53.70;;;;;;5012133;28;20111;-46
2022/10/03 08:58:13;;;;;;;1.17;0.47;;;21.40;53.60;;;;;;5022718;28;20053;-49
2022/10/03 09:01:04;;;;;;;3.30;0.35;;;21.40;53.40;;;;;;4986883;28;20049;-45
2022/10/03 09:04:22;;;;;;;3.80;0.35;;;21.50;53.40;;;;;;5023061;28;20049;-46
2022/10/03 09:07:14;;;;;;;2.10;0.60;;;21.50;53.30;;;;;;5001171;28;20580;-46
2022/10/03 09:10:12;;;;;;;1.08;0.30;;;21.50;53.30;;;;;;4976940;28;20052;-45
2022/10/03 09:13:13;;;;;;;0.63;0.30;;;21.50;53.10;;;;;;4995666;28;20107;-46
2022/10/03 09:16:21;;;;;;;0.52;0.35;;;21.50;53.10;;;;;;4984750;28;20082;-50
2022/10/03 09:19:10;;;;;;;1.90;0.73;;;21.50;53.10;;;;;;4980964;28;20511;-46
2022/10/03 09:22:09;;;;;;;0.70;0.50;;;21.50;53.20;;;;;;4960712;28;20452;-45
2022/10/03 09:25:06;;;;;;;0.50;0.50;;;21.50;53.00;;;;;;4966267;28;20169;-48
2022/10/03 09:28:03;;;;;;;2.30;0.70;;;21.50;53.00;;;;;;5013966;28;20053;-45
2022/10/03 09:30:49;;;;;;;1.13;0.70;;;21.50;52.90;;;;;;5039050;28;20057;-46
2022/10/03 09:33:56;;;;;;;1.13;0.75;;;21.50;52.80;;;;;;5020603;28;20041;-46
2022/10/03 09:36:55;;;;;;;2.85;1.13;;;21.50;52.70;;;;;;5019338;28;20082;-45
2022/10/03 09:40:23;;;;;;;3.60;1.65;;;21.60;53.30;;;;;;5029859;28;20095;-45
2022/10/03 09:43:14;;;;;;;1.37;1.27;;;21.60;52.60;;;;;;5018330;28;20533;-47
2022/10/03 09:46:09;;;;;;;1.55;1.35;;;21.60;52.70;;;;;;5027571;28;20045;-46
2022/10/03 09:49:02;;;;;;;1.73;0.75;;;21.60;52.60;;;;;;5039379;28;20512;-45
2022/10/03 09:51:45;;;;;;;3.60;1.20;;;21.60;52.60;;;;;;5042938;28;20045;-49
2022/10/03 09:54:47;;;;;;;1.27;1.27;;;21.60;52.60;;;;;;5053063;28;20044;-49
2022/10/03 09:57:53;;;;;;;0.82;0.82;;;21.60;52.50;;;;;;5045108;28;20102;-48
2022/10/03 10:00:23;;;;;;;3.67;0.82;;;21.60;52.50;;;;;;5050433;28;20045;-45
2022/10/03 10:03:28;;;;;;;2.95;0.90;;;21.60;52.50;;;;;;5051265;28;20079;-45
2022/10/03 10:06:33;;;;;;;6.28;1.15;;;21.60;52.30;;;;;;5051179;28;20139;-45
2022/10/03 10:09:39;;;;;;;1.70;1.10;;;21.70;52.50;;;;;;5057745;28;20044;-45
2022/10/03 10:12:50;;;;;;;1.60;1.05;;;21.70;52.40;;;;;;5060863;28;20052;-45
2022/10/03 10:15:51;;;;;;;1.90;1.52;;;21.70;52.30;;;;;;5066721;28;20036;-46
2022/10/03 10:18:59;;;;;;;1.50;1.40;;;21.70;52.20;;;;;;5069945;28;20048;-49
2022/10/03 10:21:55;;;;;;;3.63;1.95;;;21.70;52.20;;;;;;5027285;28;20056;-46
2022/10/03 10:25:08;;;;;;;4.00;1.23;;;21.70;52.10;;;;;;5016008;28;20050;-46
2022/10/03 10:28:02;;;;;;;1.33;1.15;;;21.80;52.10;;;;;;5021580;28;20053;-47
2022/10/03 10:31:03;;;;;;;1.65;1.00;;;21.80;52.20;;;;;;5020080;28;20051;-45
2022/10/03 10:34:29;;;;;;;5.32;0.82;;;21.80;52.20;;;;;;5027300;28;20594;-46
2022/10/03 10:37:31;;;;;;;2.63;1.40;;;21.80;52.10;;;;;;5027046;28;20057;-45
2022/10/03 10:40:23;;;;;;;4.32;2.08;;;21.80;52.10;;;;;;4967878;28;20057;-45
2022/10/03 10:43:34;;;;;;;5.18;2.13;;;21.90;52.10;;;;;;4968497;28;20075;-46
2022/10/03 10:46:34;;;;;;;10.50;2.75;;;21.90;52.00;;;;;;4968423;28;20809;-45
2022/10/03 10:49:46;;;;;;;8.25;3.25;;;22.00;52.00;;;;;;4967877;28;20042;-46
2022/10/03 10:52:48;;;;;;;11.45;3.45;;;22.00;51.90;;;;;;4961869;28;20122;-46
2022/10/03 10:56:05;;;;;;;10.18;4.03;;;22.00;51.90;;;;;;4946438;28;20078;-45
2022/10/03 10:59:18;;;;;;;13.57;4.13;;;22.00;51.80;;;;;;4969376;28;20198;-48
2022/10/03 11:02:39;;;;;;;11.63;3.65;;;22.00;51.80;;;;;;4987994;28;20066;-47
2022/10/03 11:05:46;;;;;;;7.65;2.95;;;22.00;51.70;;;;;;4988123;28;20168;-45
2022/10/03 11:08:53;;;;;;;7.13;3.55;;;22.10;51.80;;;;;;4980217;28;20135;-47
2022/10/03 11:11:53;;;;;;;7.60;2.10;;;22.10;51.70;;;;;;4992288;28;20054;-46
2022/10/03 11:15:04;;;;;;;8.20;3.08;;;22.10;51.50;;;;;;4971120;28;20120;-47
2022/10/03 11:17:56;;;;;;;4.97;2.42;;;22.10;51.30;;;;;;5003593;28;20100;-47
2022/10/03 11:20:56;;;;;;;6.50;2.92;;;22.20;51.30;;;;;;5023145;28;20050;-45
2022/10/03 11:24:04;;;;;;;4.63;1.20;;;22.20;51.10;;;;;;5005486;28;20053;-46
2022/10/03 11:27:05;;;;;;;4.15;2.38;;;22.20;50.90;;;;;;5011741;28;20037;-46
2022/10/03 11:30:07;;;;;;;2.10;1.63;;;22.20;50.80;;;;;;5008905;28;20048;-45
2022/10/03 11:33:12;;;;;;;2.65;1.10;;;22.30;50.70;;;;;;5025070;28;20099;-47
2022/10/03 11:36:10;;;;;;;5.10;1.85;;;22.30;50.60;;;;;;5026262;28;20049;-46
2022/10/03 11:38:47;;;;;;;4.65;2.75;;;22.30;50.50;;;;;;5025768;28;20472;-45
2022/10/03 11:41:26;;;;;;;6.40;2.30;;;22.40;50.50;;;;;;5025910;28;20057;-45
2022/10/03 11:44:15;;;;;;;2.17;1.40;;;22.40;50.30;;;;;;5026023;28;20049;-45
2022/10/03 11:46:53;;;;;;;3.38;1.92;;;22.40;50.30;;;;;;5018106;28;20042;-45
2022/10/03 11:49:43;;;;;;;3.00;2.15;;;22.40;50.00;;;;;;5005738;28;20388;-43
2022/10/03 11:52:26;;;;;;;7.45;2.22;;;22.40;49.80;;;;;;5011802;28;20138;-42
2022/10/03 11:55:07;;;;;;;6.10;2.25;;;22.50;49.80;;;;;;5031499;28;20048;-45
2022/10/03 11:57:37;;;;;;;4.75;2.03;;;22.50;49.90;;;;;;5052587;28;20052;-45
2022/10/03 12:00:12;;;;;;;4.43;2.05;;;22.50;50.00;;;;;;5068228;28;20099;-45
2022/10/03 12:03:09;;;;;;;3.67;2.05;;;22.50;49.70;;;;;;5057027;28;20033;-46
2022/10/03 12:05:48;;;;;;;3.03;1.95;;;22.50;49.30;;;;;;5047677;28;20044;-46
2022/10/03 12:11:14;;;;;;;6.22;1.63;;;22.60;49.10;;;;;;5045465;28;20048;-47
2022/10/03 12:14:01;;;;;;;5.35;1.40;;;22.60;49.00;;;;;;5063608;28;20037;-49
2022/10/03 12:16:32;;;;;;;3.58;1.40;;;22.60;49.30;;;;;;5047810;28;20044;-53
2022/10/03 12:19:11;;;;;;;4.03;1.15;;;22.60;49.60;;;;;;5042332;28;20132;-50
2022/10/03 12:21:53;;;;;;;1.40;0.85;;;22.70;49.80;;;;;;5044330;28;20119;-49
2022/10/03 12:24:26;;;;;;;2.33;1.30;;;22.70;50.10;;;;;;5053184;28;20497;-47
2022/10/03 12:27:06;;;;;;;3.35;1.42;;;22.70;50.20;;;;;;5048973;28;20133;-51
2022/10/03 12:29:38;;;;;;;3.88;1.83;;;22.80;50.10;;;;;;5061334;28;20047;-47
2022/10/03 12:32:18;;;;;;;3.20;1.27;;;22.80;50.30;;;;;;5061967;28;20155;-50
2022/10/03 12:34:52;;;;;;;9.82;1.63;;;22.90;50.20;;;;;;5048676;28;20091;-49
2022/10/03 12:37:45;;;;;;;2.13;0.85;;;23.00;50.10;;;;;;5049586;28;20041;-49
2022/10/03 12:40:23;;;;;;;5.28;2.38;;;23.20;49.90;;;;;;5060491;28;20045;-44
2022/10/03 12:43:03;;;;;;;7.68;0.80;;;23.30;49.90;;;;;;5060298;28;20047;-45
2022/10/03 12:45:36;;;;;;;4.82;0.93;;;23.40;49.60;;;;;;5044552;28;20033;-44
2022/10/03 12:48:29;;;;;;;3.85;1.70;;;23.50;49.20;;;;;;5057104;28;20037;-48
2022/10/03 12:51:03;;;;;;;1.55;0.80;;;23.70;48.80;;;;;;5047189;28;20041;-45
2022/10/03 12:53:40;;;;;;;1.95;0.73;;;23.80;48.60;;;;;;5042203;28;20037;-51
2022/10/03 12:56:17;;;;;;;3.20;1.05;;;24.00;48.40;;;;;;5044609;28;20179;-46
2022/10/03 12:58:52;;;;;;;2.17;0.60;;;24.10;48.10;;;;;;5057912;28;20048;-48
2022/10/03 13:01:28;;;;;;;2.33;0.50;;;24.30;47.80;;;;;;5060775;28;20037;-47
2022/10/03 13:03:58;;;;;;;3.42;0.80;;;24.50;47.70;;;;;;5053298;28;20049;-50
2022/10/03 13:06:40;;;;;;;1.30;0.38;;;24.60;47.50;;;;;;5064779;28;20041;-47
2022/10/03 13:09:18;;;;;;;4.63;0.50;;;24.80;47.30;;;;;;5054792;28;20592;-46
2022/10/03 13:11:57;;;;;;;4.72;0.88;;;24.90;47.00;;;;;;5049109;28;20087;-46
2022/10/03 13:14:40;;;;;;;0.90;0.45;;;25.00;46.90;;;;;;5054662;28;20136;-52
2022/10/03 13:17:18;;;;;;;6.05;0.40;;;25.10;46.50;;;;;;5060249;28;20037;-55
2022/10/03 13:20:00;;;;;;;6.32;0.50;;;25.30;46.30;;;;;;5041298;28;20053;-54
2022/10/03 13:22:42;;;;;;;3.67;0.60;;;25.40;45.90;;;;;;5048258;28;20041;-52
2022/10/03 13:25:17;;;;;;;2.15;1.02;;;25.60;45.40;;;;;;5055883;28;20041;-49
2022/10/03 13:27:50;;;;;;;4.32;1.52;;;25.70;44.80;;;;;;5061642;28;20540;-51
2022/10/03 13:30:21;;;;;;;3.92;0.73;;;25.80;44.70;;;;;;5059364;28;20509;-46
2022/10/03 13:32:54;;;;;;;2.72;0.55;;;25.90;44.30;;;;;;5048080;28;20132;-47
2022/10/03 13:38:38;;;;;;;1.80;0.50;;;26.00;44.60;;;;;;5069130;28;20511;-49
2022/10/03 13:41:28;;;;;;;0.73;0.40;;;26.00;43.70;;;;;;5062996;28;20037;-50
2022/10/03 13:44:03;;;;;;;1.75;0.73;;;26.10;43.50;;;;;;5062382;28;20505;-55
2022/10/03 13:46:37;;;;;;;1.02;0.40;;;26.20;43.50;;;;;;5057610;28;20509;-50
2022/10/03 13:49:13;;;;;;;1.13;0.47;;;26.40;43.70;;;;;;5050060;28;20041;-51
2022/10/03 13:51:51;;;;;;;2.13;0.43;;;26.50;43.30;;;;;;5046428;28;20036;-53
2022/10/03 13:54:35;;;;;;;0.73;0.45;;;26.60;43.10;;;;;;5059325;28;20486;-47
2022/10/03 13:57:10;;;;;;;1.63;0.40;;;26.60;42.80;;;;;;5062861;28;20173;-50
2022/10/03 13:59:52;;;;;;;2.42;0.35;;;26.70;42.60;;;;;;5064047;28;20555;-48
2022/10/03 14:02:41;;;;;;;4.20;0.80;;;26.90;42.50;;;;;;5044638;28;20128;-44
2022/10/03 14:05:32;;;;;;;7.30;1.00;;;27.00;42.40;;;;;;5063396;28;20041;-46
2022/10/03 14:08:09;;;;;;;0.75;0.40;;;27.00;42.00;;;;;;5066200;28;20127;-45
2022/10/03 14:11:01;;;;;;;2.17;0.73;;;27.20;42.10;;;;;;5067973;28;20119;-45
2022/10/03 14:13:42;;;;;;;4.38;0.50;;;27.30;42.00;;;;;;5066471;28;20114;-46
2022/10/03 14:16:16;;;;;;;2.25;0.40;;;27.40;41.90;;;;;;5052676;28;20571;-47
2022/10/03 14:18:52;;;;;;;5.00;0.40;;;27.50;41.70;;;;;;5050902;28;20045;-45
2022/10/03 14:21:49;;;;;;;2.10;0.60;;;27.50;41.50;;;;;;5052190;28;20047;-47
2022/10/03 14:24:37;;;;;;;8.65;0.82;;;27.50;41.40;;;;;;5060138;28;20052;-48
2022/10/03 14:27:16;;;;;;;3.97;0.52;;;27.50;41.60;;;;;;5059174;28;20438;-47
2022/10/03 14:29:55;;;;;;;3.60;0.88;;;27.40;41.30;;;;;;5065456;28;20708;-49
2022/10/03 14:32:30;;;;;;;10.70;2.20;;;27.20;41.30;;;;;;5069052;28;20131;-50
2022/10/03 14:35:04;;;;;;;0.90;0.45;;;27.10;41.70;;;;;;5063753;28;20056;-47
2022/10/03 14:37:41;;;;;;;10.82;0.52;;;26.90;42.00;;;;;;5046390;28;20037;-50
2022/10/03 14:40:17;;;;;;;2.33;0.85;;;26.90;42.10;;;;;;5045801;28;20115;-50
2022/10/03 14:42:58;;;;;;;4.05;0.30;;;26.80;42.30;;;;;;5062548;28;20044;-49
2022/10/03 14:45:29;;;;;;;3.35;1.25;;;26.80;42.30;;;;;;5062130;28;20071;-57
2022/10/03 14:48:04;;;;;;;3.70;1.50;;;26.70;42.70;;;;;;5059759;28;20045;-48
2022/10/03 14:50:33;;;;;;;2.97;0.25;;;26.70;42.90;;;;;;5046850;28;20049;-51